createdAt,value
2023-01-13T00:00:48.751Z,51.212116
2023-01-13T00:01:48.740Z,51.212158
2023-01-13T00:02:48.733Z,51.212189
2023-01-13T00:03:48.726Z,51.212215
2023-01-13T00:04:48.797Z,51.212292
2023-01-13T00:05:48.741Z,51.212273
2023-01-13T00:06:48.685Z,51.212265
2023-01-13T00:07:48.735Z,51.212437
2023-01-13T00:08:48.682Z,51.212284
2023-01-13T00:09:48.680Z,51.212234
2023-01-13T00:10:48.652Z,51.212196
2023-01-13T00:11:48.671Z,51.212120
2023-01-13T00:12:48.668Z,51.212368
2023-01-13T00:13:48.674Z,51.212093
2023-01-13T00:14:48.637Z,51.212021
2023-01-13T00:15:48.792Z,51.212029
2023-01-13T00:16:48.627Z,51.212189
2023-01-13T00:17:48.659Z,51.212265
2023-01-13T00:18:48.607Z,51.212254
2023-01-13T00:19:48.652Z,51.211849
2023-01-13T00:20:48.592Z,51.211910
2023-01-13T00:21:48.591Z,51.211964
2023-01-13T00:22:48.604Z,51.212124
2023-01-13T00:23:48.585Z,51.212093
2023-01-13T00:24:48.548Z,51.212128
2023-01-13T00:25:49.578Z,51.212265
2023-01-13T00:26:48.555Z,51.212132
2023-01-13T00:27:48.602Z,51.212250
2023-01-13T00:28:48.544Z,51.212280
2023-01-13T00:29:48.559Z,51.212173
2023-01-13T00:30:48.522Z,51.212292
2023-01-13T00:31:48.512Z,51.212223
2023-01-13T00:32:48.506Z,51.212139
2023-01-13T00:33:48.515Z,51.212040
2023-01-13T00:34:48.513Z,51.211918
2023-01-13T00:35:48.492Z,51.212082
2023-01-13T00:36:48.497Z,51.212231
2023-01-13T00:37:48.473Z,51.212166
2023-01-13T00:38:48.494Z,51.212204
2023-01-13T00:39:48.468Z,51.212181
2023-01-13T00:40:48.459Z,51.212040
2023-01-13T00:41:48.466Z,51.212086
2023-01-13T00:42:48.489Z,51.212090
2023-01-13T00:43:48.443Z,51.212151
2023-01-13T00:44:48.457Z,51.212177
2023-01-13T00:45:48.431Z,51.212181
2023-01-13T00:46:48.467Z,51.212044
2023-01-13T00:47:48.431Z,51.212059
2023-01-13T00:48:48.421Z,51.212215
2023-01-13T00:49:48.405Z,51.212292
2023-01-13T00:50:48.393Z,51.212234
2023-01-13T00:51:48.397Z,51.212234
2023-01-13T00:52:48.377Z,51.212223
2023-01-13T00:53:48.375Z,51.212109
2023-01-13T00:54:48.432Z,51.212078
2023-01-13T00:55:48.355Z,51.212048
2023-01-13T00:56:48.358Z,51.212166
2023-01-13T00:57:48.368Z,51.212101
2023-01-13T00:58:48.379Z,51.212048
2023-01-13T00:59:49.603Z,51.211975
2023-01-13T01:00:49.362Z,51.212124
2023-01-13T01:01:48.433Z,51.212116
2023-01-13T01:02:48.361Z,51.212055
2023-01-13T01:03:48.336Z,51.212128
2023-01-13T01:04:48.349Z,51.212135
2023-01-13T01:05:48.336Z,51.212132
2023-01-13T01:06:48.288Z,51.212116
2023-01-13T01:07:48.290Z,51.212090
2023-01-13T01:08:48.331Z,51.212078
2023-01-13T01:09:48.278Z,51.212132
2023-01-13T01:10:48.387Z,51.212059
2023-01-13T01:11:48.266Z,51.211964
2023-01-13T01:12:48.301Z,51.212093
2023-01-13T01:13:48.251Z,51.212044
2023-01-13T01:14:48.260Z,51.212078
2023-01-13T01:15:48.295Z,51.212051
2023-01-13T01:16:48.290Z,51.212063
2023-01-13T01:17:48.222Z,51.211990
2023-01-13T01:18:49.200Z,51.211975
2023-01-13T01:19:48.293Z,51.211994
2023-01-13T01:20:48.187Z,51.212120
2023-01-13T01:21:48.225Z,51.212090
2023-01-13T01:22:48.175Z,51.212013
2023-01-13T01:23:48.163Z,51.212082
2023-01-13T01:24:48.160Z,51.212048
2023-01-13T01:25:49.172Z,51.212112
2023-01-13T01:26:48.170Z,51.212124
2023-01-13T01:27:48.143Z,51.212166
2023-01-13T01:28:48.198Z,51.212166
2023-01-13T01:29:48.116Z,51.212029
2023-01-13T01:30:48.131Z,51.212002
2023-01-13T01:31:48.183Z,51.212032
2023-01-13T01:32:48.104Z,51.211922
2023-01-13T01:33:48.096Z,51.212036
2023-01-13T01:34:48.110Z,51.212048
2023-01-13T01:35:48.108Z,51.212212
2023-01-13T01:36:48.079Z,51.212135
2023-01-13T01:37:48.078Z,51.212185
2023-01-13T01:38:48.074Z,51.211960
2023-01-13T01:39:48.066Z,51.212051
2023-01-13T01:40:48.068Z,51.211964
2023-01-13T01:41:48.071Z,51.212139
2023-01-13T01:42:49.063Z,51.212059
2023-01-13T01:43:48.062Z,51.211815
2023-01-13T01:44:49.849Z,51.211803
2023-01-13T01:45:48.032Z,51.211861
2023-01-13T01:46:48.048Z,51.211792
2023-01-13T01:47:48.016Z,51.211704
2023-01-13T01:48:48.066Z,51.211693
2023-01-13T01:49:47.990Z,51.211754
2023-01-13T01:50:47.983Z,51.211777
2023-01-13T01:51:47.977Z,51.211617
2023-01-13T01:52:47.976Z,51.211670
2023-01-13T01:53:47.974Z,51.211880
2023-01-13T01:54:47.994Z,51.211803
2023-01-13T01:55:47.958Z,51.211826
2023-01-13T01:56:47.941Z,51.212036
2023-01-13T01:57:47.940Z,51.211937
2023-01-13T01:58:47.958Z,51.211967
2023-01-13T01:59:47.972Z,51.211952
2023-01-13T02:00:47.985Z,51.211800
2023-01-13T02:01:48.152Z,51.211800
2023-01-13T02:02:48.054Z,51.211769
2023-01-13T02:03:47.909Z,51.211845
2023-01-13T02:04:47.904Z,51.211800
2023-01-13T02:05:47.902Z,51.211861
2023-01-13T02:06:47.898Z,51.211830
2023-01-13T02:07:47.897Z,51.211823
2023-01-13T02:08:48.033Z,51.211769
2023-01-13T02:09:47.882Z,51.211838
2023-01-13T02:10:47.880Z,51.211926
2023-01-13T02:11:47.855Z,51.212021
2023-01-13T02:12:47.858Z,51.212063
2023-01-13T02:13:47.848Z,51.212055
2023-01-13T02:14:47.831Z,51.212036
2023-01-13T02:15:47.857Z,51.211948
2023-01-13T02:16:47.814Z,51.211903
2023-01-13T02:17:47.804Z,51.211887
2023-01-13T02:18:47.794Z,51.211948
2023-01-13T02:19:47.800Z,51.212017
2023-01-13T02:20:47.790Z,51.211941
2023-01-13T02:21:47.784Z,51.212029
2023-01-13T02:22:47.776Z,51.212032
2023-01-13T02:23:47.761Z,51.211971
2023-01-13T02:24:47.774Z,51.211910
2023-01-13T02:25:47.852Z,51.211929
2023-01-13T02:26:47.739Z,51.211800
2023-01-13T02:27:47.749Z,51.211803
2023-01-13T02:28:47.750Z,51.211868
2023-01-13T02:29:47.755Z,51.212067
2023-01-13T02:30:47.717Z,51.212147
2023-01-13T02:31:47.737Z,51.212036
2023-01-13T02:32:47.702Z,51.211887
2023-01-13T02:33:47.725Z,51.211979
2023-01-13T02:34:47.712Z,51.212006
2023-01-13T02:35:47.698Z,51.212074
2023-01-13T02:36:47.684Z,51.211868
2023-01-13T02:37:47.690Z,51.211987
2023-01-13T02:38:47.730Z,51.211990
2023-01-13T02:39:47.661Z,51.212059
2023-01-13T02:40:47.719Z,51.211857
2023-01-13T02:41:47.679Z,51.212036
2023-01-13T02:42:47.667Z,51.212082
2023-01-13T02:43:47.652Z,51.212032
2023-01-13T02:44:47.649Z,51.212086
2023-01-13T02:45:47.678Z,51.212135
2023-01-13T02:46:47.616Z,51.212116
2023-01-13T02:47:47.630Z,51.212017
2023-01-13T02:48:47.625Z,51.212067
2023-01-13T02:49:47.675Z,51.212193
2023-01-13T02:50:47.598Z,51.212288
2023-01-13T02:51:47.583Z,51.212086
2023-01-13T02:52:47.594Z,51.212078
2023-01-13T02:53:47.571Z,51.212055
2023-01-13T02:54:47.573Z,51.212120
2023-01-13T02:55:47.587Z,51.212162
2023-01-13T02:56:47.593Z,51.212143
2023-01-13T02:57:47.543Z,51.212120
2023-01-13T02:58:47.544Z,51.212105
2023-01-13T02:59:47.565Z,51.212120
2023-01-13T03:00:47.587Z,51.212116
2023-01-13T03:01:47.653Z,51.211998
2023-01-13T03:02:47.598Z,51.211964
2023-01-13T03:03:47.541Z,51.212093
2023-01-13T03:04:47.509Z,51.212006
2023-01-13T03:05:47.503Z,51.211975
2023-01-13T03:06:47.528Z,51.211998
2023-01-13T03:07:47.542Z,51.212055
2023-01-13T03:08:47.537Z,51.212112
2023-01-13T03:09:47.484Z,51.212166
2023-01-13T03:10:47.489Z,51.212170
2023-01-13T03:11:47.471Z,51.212132
2023-01-13T03:12:47.479Z,51.212181
2023-01-13T03:13:47.475Z,51.212238
2023-01-13T03:14:47.452Z,51.212170
2023-01-13T03:15:47.452Z,51.212200
2023-01-13T03:16:47.478Z,51.212135
2023-01-13T03:17:47.408Z,51.212181
2023-01-13T03:18:48.432Z,51.212097
2023-01-13T03:19:47.420Z,51.212158
2023-01-13T03:20:47.404Z,51.212257
2023-01-13T03:21:47.398Z,51.212189
2023-01-13T03:22:47.385Z,51.212170
2023-01-13T03:23:47.392Z,51.212162
2023-01-13T03:24:47.383Z,51.212105
2023-01-13T03:25:47.363Z,51.212086
2023-01-13T03:26:47.381Z,51.212040
2023-01-13T03:27:47.362Z,51.212090
2023-01-13T03:28:47.348Z,51.212032
2023-01-13T03:29:47.348Z,51.212082
2023-01-13T03:30:47.374Z,51.212124
2023-01-13T03:31:47.357Z,51.212093
2023-01-13T03:32:47.320Z,51.212044
2023-01-13T03:33:47.343Z,51.212029
2023-01-13T03:34:47.318Z,51.212074
2023-01-13T03:35:48.363Z,51.212109
2023-01-13T03:36:47.319Z,51.212162
2023-01-13T03:37:47.296Z,51.212097
2023-01-13T03:38:47.307Z,51.211964
2023-01-13T03:39:47.296Z,51.211967
2023-01-13T03:40:47.274Z,51.212036
2023-01-13T03:41:47.300Z,51.211998
2023-01-13T03:42:47.248Z,51.212067
2023-01-13T03:43:47.286Z,51.212051
2023-01-13T03:44:47.252Z,51.212116
2023-01-13T03:45:47.266Z,51.212158
2023-01-13T03:46:47.287Z,51.212116
2023-01-13T03:47:47.222Z,51.212135
2023-01-13T03:48:47.244Z,51.212128
2023-01-13T03:49:47.223Z,51.212166
2023-01-13T03:50:47.212Z,51.212112
2023-01-13T03:51:47.299Z,51.212105
2023-01-13T03:52:47.197Z,51.212090
2023-01-13T03:53:47.214Z,51.212059
2023-01-13T03:54:47.217Z,51.212017
2023-01-13T03:55:47.185Z,51.212063
2023-01-13T03:56:47.193Z,51.211964
2023-01-13T03:57:47.216Z,51.212196
2023-01-13T03:58:47.155Z,51.212349
2023-01-13T03:59:47.161Z,51.212452
2023-01-13T04:00:47.152Z,51.212429
2023-01-13T04:01:47.293Z,51.212265
2023-01-13T04:02:47.165Z,51.212147
2023-01-13T04:03:47.142Z,51.212345
2023-01-13T04:04:47.115Z,51.212280
2023-01-13T04:05:47.127Z,51.212246
2023-01-13T04:06:47.101Z,51.212135
2023-01-13T04:07:47.114Z,51.212276
2023-01-13T04:08:47.130Z,51.212231
2023-01-13T04:09:47.082Z,51.212399
2023-01-13T04:10:47.097Z,51.212391
2023-01-13T04:11:47.073Z,51.212234
2023-01-13T04:12:47.093Z,51.212242
2023-01-13T04:13:47.061Z,51.212139
2023-01-13T04:14:47.054Z,51.212196
2023-01-13T04:15:47.112Z,51.212238
2023-01-13T04:16:47.040Z,51.212120
2023-01-13T04:17:47.030Z,51.211956
2023-01-13T04:18:47.047Z,51.211994
2023-01-13T04:19:47.057Z,51.211830
2023-01-13T04:20:47.010Z,51.211933
2023-01-13T04:21:47.005Z,51.211857
2023-01-13T04:22:47.032Z,51.211781
2023-01-13T04:23:47.032Z,51.211788
2023-01-13T04:24:47.030Z,51.211796
2023-01-13T04:25:47.014Z,51.211861
2023-01-13T04:26:46.981Z,51.211906
2023-01-13T04:27:46.973Z,51.211823
2023-01-13T04:28:47.010Z,51.211845
2023-01-13T04:29:46.973Z,51.212154
2023-01-13T04:30:47.008Z,51.212204
2023-01-13T04:31:46.960Z,51.212063
2023-01-13T04:32:46.950Z,51.211971
2023-01-13T04:33:46.923Z,51.211941
2023-01-13T04:34:46.930Z,51.212006
2023-01-13T04:35:46.931Z,51.212021
2023-01-13T04:36:46.950Z,51.212063
2023-01-13T04:37:46.902Z,51.212040
2023-01-13T04:38:46.913Z,51.212029
2023-01-13T04:39:46.912Z,51.212055
2023-01-13T04:40:46.896Z,51.212090
2023-01-13T04:41:46.932Z,51.212112
2023-01-13T04:42:46.865Z,51.212196
2023-01-13T04:43:46.864Z,51.212265
2023-01-13T04:44:46.909Z,51.212212
2023-01-13T04:45:46.855Z,51.212212
2023-01-13T04:46:46.862Z,51.212173
2023-01-13T04:47:46.913Z,51.212162
2023-01-13T04:48:46.832Z,51.212212
2023-01-13T04:49:46.831Z,51.212154
2023-01-13T04:50:46.813Z,51.212173
2023-01-13T04:51:46.828Z,51.212158
2023-01-13T04:52:46.828Z,51.212265
2023-01-13T04:53:46.806Z,51.212151
2023-01-13T04:54:46.811Z,51.212097
2023-01-13T04:55:46.791Z,51.212151
2023-01-13T04:56:46.789Z,51.212223
2023-01-13T04:57:46.906Z,51.212025
2023-01-13T04:58:46.772Z,51.212070
2023-01-13T04:59:46.766Z,51.212143
2023-01-13T05:00:46.803Z,51.212044
2023-01-13T05:01:46.823Z,51.212097
2023-01-13T05:02:46.740Z,51.212173
2023-01-13T05:03:46.793Z,51.212162
2023-01-13T05:04:46.735Z,51.212105
2023-01-13T05:05:47.714Z,51.212143
2023-01-13T05:06:47.506Z,51.212044
2023-01-13T05:07:46.704Z,51.212162
2023-01-13T05:08:46.709Z,51.212074
2023-01-13T05:09:46.693Z,51.212059
2023-01-13T05:10:47.560Z,51.212074
2023-01-13T05:11:46.674Z,51.212090
2023-01-13T05:12:46.669Z,51.212231
2023-01-13T05:13:46.752Z,51.212345
2023-01-13T05:14:46.659Z,51.212242
2023-01-13T05:15:46.698Z,51.212315
2023-01-13T05:16:46.649Z,51.212280
2023-01-13T05:17:46.651Z,51.212261
2023-01-13T05:18:46.629Z,51.212234
2023-01-13T05:19:46.656Z,51.212162
2023-01-13T05:20:46.622Z,51.211880
2023-01-13T05:21:46.618Z,51.211819
2023-01-13T05:22:46.696Z,51.212238
2023-01-13T05:23:46.604Z,51.212215
2023-01-13T05:24:46.596Z,51.212276
2023-01-13T05:25:46.607Z,51.212425
2023-01-13T05:26:46.593Z,51.212425
2023-01-13T05:27:46.572Z,51.212505
2023-01-13T05:28:46.594Z,51.212353
2023-01-13T05:29:46.563Z,51.212303
2023-01-13T05:30:46.650Z,51.212399
2023-01-13T05:31:47.039Z,51.212284
2023-01-13T05:32:46.604Z,51.212154
2023-01-13T05:33:46.542Z,51.212032
2023-01-13T05:34:46.526Z,51.212112
2023-01-13T05:35:46.576Z,51.212090
2023-01-13T05:36:46.522Z,51.212074
2023-01-13T05:37:46.518Z,51.212242
2023-01-13T05:38:46.546Z,51.212147
2023-01-13T05:39:46.494Z,51.212086
2023-01-13T05:40:46.481Z,51.212067
2023-01-13T05:41:46.537Z,51.211788
2023-01-13T05:42:46.471Z,51.211933
2023-01-13T05:43:46.513Z,51.211975
2023-01-13T05:44:46.458Z,51.212132
2023-01-13T05:45:46.446Z,51.212109
2023-01-13T05:46:46.562Z,51.212143
2023-01-13T05:47:46.459Z,51.212162
2023-01-13T05:48:46.423Z,51.212120
2023-01-13T05:49:46.452Z,51.212093
2023-01-13T05:50:46.442Z,51.212173
2023-01-13T05:51:46.431Z,51.212204
2023-01-13T05:52:46.442Z,51.212227
2023-01-13T05:53:47.033Z,51.212204
2023-01-13T05:54:46.395Z,51.212234
2023-01-13T05:55:47.052Z,51.212223
2023-01-13T05:56:46.380Z,51.212219
2023-01-13T05:57:46.390Z,51.212196
2023-01-13T05:58:46.382Z,51.212231
2023-01-13T05:59:46.384Z,51.212223
2023-01-13T06:00:46.381Z,51.212234
2023-01-13T06:01:46.382Z,51.212246
2023-01-13T06:02:46.386Z,51.212227
2023-01-13T06:03:47.018Z,51.212273
2023-01-13T06:04:46.449Z,51.212288
2023-01-13T06:05:46.328Z,51.212418
2023-01-13T06:06:47.305Z,51.212391
2023-01-13T06:07:46.765Z,51.212330
2023-01-13T06:08:47.034Z,51.212273
2023-01-13T06:09:46.293Z,51.212196
2023-01-13T06:10:46.301Z,51.212234
2023-01-13T06:11:46.469Z,51.212177
2023-01-13T06:12:46.324Z,51.212147
2023-01-13T06:13:46.273Z,51.212078
2023-01-13T06:14:46.329Z,51.212036
2023-01-13T06:15:46.384Z,51.212009
2023-01-13T06:16:46.340Z,51.212059
2023-01-13T06:17:46.237Z,51.212029
2023-01-13T06:18:46.259Z,51.212120
2023-01-13T06:19:46.258Z,51.212215
2023-01-13T06:20:46.214Z,51.212242
2023-01-13T06:21:46.217Z,51.212151
2023-01-13T06:22:46.273Z,51.212078
2023-01-13T06:23:46.217Z,51.212032
2023-01-13T06:24:46.189Z,51.212021
2023-01-13T06:25:46.279Z,51.211994
2023-01-13T06:26:46.176Z,51.212044
2023-01-13T06:27:46.184Z,51.212044
2023-01-13T06:28:46.328Z,51.212116
2023-01-13T06:29:46.154Z,51.212132
2023-01-13T06:30:46.189Z,51.211956
2023-01-13T06:31:46.255Z,51.211987
2023-01-13T06:32:46.145Z,51.212105
2023-01-13T06:33:46.130Z,51.212166
2023-01-13T06:34:46.185Z,51.212151
2023-01-13T06:35:46.124Z,51.212147
2023-01-13T06:36:46.130Z,51.212212
2023-01-13T06:37:46.221Z,51.212200
2023-01-13T06:38:47.111Z,51.212261
2023-01-13T06:39:46.105Z,51.212238
2023-01-13T06:40:46.170Z,51.212185
2023-01-13T06:41:46.110Z,51.212135
2023-01-13T06:42:46.085Z,51.212135
2023-01-13T06:43:46.168Z,51.212162
2023-01-13T06:44:46.068Z,51.212170
2023-01-13T06:45:46.074Z,51.212139
2023-01-13T06:46:46.936Z,51.212112
2023-01-13T06:47:46.081Z,51.212021
2023-01-13T06:48:46.039Z,51.212029
2023-01-13T06:49:46.085Z,51.212116
2023-01-13T06:50:46.033Z,51.212143
2023-01-13T06:51:46.051Z,51.212101
2023-01-13T06:52:46.064Z,51.212120
2023-01-13T06:53:46.014Z,51.212318
2023-01-13T06:54:46.014Z,51.212223
2023-01-13T06:55:47.061Z,51.212135
2023-01-13T06:56:45.997Z,51.212116
2023-01-13T06:57:46.012Z,51.212036
2023-01-13T06:58:46.026Z,51.212051
2023-01-13T06:59:45.980Z,51.212059
2023-01-13T07:00:46.003Z,51.212036
2023-01-13T07:01:46.192Z,51.211994
2023-01-13T07:02:45.985Z,51.211922
2023-01-13T07:03:45.955Z,51.211929
2023-01-13T07:04:45.980Z,51.211971
2023-01-13T07:05:45.934Z,51.211983
2023-01-13T07:06:45.938Z,51.211979
2023-01-13T07:07:46.010Z,51.212051
2023-01-13T07:08:45.920Z,51.212070
2023-01-13T07:09:45.908Z,51.212128
2023-01-13T07:10:45.951Z,51.212086
2023-01-13T07:11:45.912Z,51.212196
2023-01-13T07:12:45.901Z,51.212181
2023-01-13T07:13:45.942Z,51.211994
2023-01-13T07:14:45.885Z,51.211956
2023-01-13T07:15:45.891Z,51.211987
2023-01-13T07:16:45.988Z,51.211975
2023-01-13T07:17:45.861Z,51.211971
2023-01-13T07:18:45.867Z,51.211994
2023-01-13T07:19:45.860Z,51.211929
2023-01-13T07:20:45.855Z,51.211929
2023-01-13T07:21:45.838Z,51.211922
2023-01-13T07:22:45.851Z,51.211952
2023-01-13T07:23:45.843Z,51.211948
2023-01-13T07:24:45.819Z,51.212063
2023-01-13T07:25:45.832Z,51.212036
2023-01-13T07:26:45.866Z,51.212070
2023-01-13T07:27:45.822Z,51.211876
2023-01-13T07:28:45.823Z,51.211731
2023-01-13T07:29:45.792Z,51.211945
2023-01-13T07:30:45.784Z,51.211967
2023-01-13T07:31:47.603Z,51.212135
2023-01-13T07:32:45.771Z,51.212055
2023-01-13T07:33:45.800Z,51.211792
2023-01-13T07:34:45.775Z,51.212006
2023-01-13T07:35:45.749Z,51.211971
2023-01-13T07:36:45.743Z,51.212173
2023-01-13T07:37:45.759Z,51.212036
2023-01-13T07:38:45.755Z,51.212086
2023-01-13T07:39:45.743Z,51.212128
2023-01-13T07:40:45.726Z,51.212120
2023-01-13T07:41:45.719Z,51.212097
2023-01-13T07:42:45.715Z,51.211998
2023-01-13T07:43:45.719Z,51.211895
2023-01-13T07:44:45.736Z,51.211990
2023-01-13T07:45:45.761Z,51.212162
2023-01-13T07:46:45.691Z,51.212032
2023-01-13T07:47:45.709Z,51.212055
2023-01-13T07:48:45.681Z,51.212097
2023-01-13T07:49:45.689Z,51.212040
2023-01-13T07:50:45.666Z,51.211964
2023-01-13T07:51:45.678Z,51.212013
2023-01-13T07:52:45.690Z,51.212120
2023-01-13T07:53:45.677Z,51.212009
2023-01-13T07:54:45.667Z,51.212051
2023-01-13T07:55:45.698Z,51.212044
2023-01-13T07:56:45.775Z,51.212048
2023-01-13T07:57:45.685Z,51.212086
2023-01-13T07:58:45.682Z,51.212059
2023-01-13T07:59:45.665Z,51.212143
2023-01-13T08:00:45.671Z,51.212147
2023-01-13T08:01:45.779Z,51.212090
2023-01-13T08:02:45.654Z,51.212128
2023-01-13T08:03:45.681Z,51.212063
2023-01-13T08:04:45.602Z,51.212143
2023-01-13T08:05:45.594Z,51.212116
2023-01-13T08:06:45.619Z,51.212029
2023-01-13T08:07:45.567Z,51.211975
2023-01-13T08:08:45.558Z,51.212074
2023-01-13T08:09:45.589Z,51.212128
2023-01-13T08:10:45.579Z,51.212135
2023-01-13T08:11:45.558Z,51.212093
2023-01-13T08:12:52.167Z,51.212124
2023-01-13T08:13:46.532Z,51.212109
2023-01-13T08:14:45.527Z,51.212124
2023-01-13T08:15:45.559Z,51.211910
2023-01-13T08:16:45.654Z,51.211945
2023-01-13T08:17:45.507Z,51.212036
2023-01-13T08:18:45.507Z,51.212074
2023-01-13T08:19:45.507Z,51.212120
2023-01-13T08:20:45.522Z,51.212112
2023-01-13T08:21:45.553Z,51.211979
2023-01-13T08:22:45.512Z,51.211864
2023-01-13T08:23:45.493Z,51.211823
2023-01-13T08:24:45.482Z,51.211975
2023-01-13T08:25:45.475Z,51.212048
2023-01-13T08:26:45.601Z,51.212009
2023-01-13T08:27:45.483Z,51.212044
2023-01-13T08:28:45.444Z,51.212219
2023-01-13T08:29:45.501Z,51.212021
2023-01-13T08:30:45.491Z,51.212143
2023-01-13T08:31:45.423Z,51.212044
2023-01-13T08:32:45.446Z,51.212013
2023-01-13T08:33:45.451Z,51.212082
2023-01-13T08:34:45.415Z,51.212025
2023-01-13T08:35:45.411Z,51.211884
2023-01-13T08:36:45.417Z,51.211952
2023-01-13T08:37:45.422Z,51.212036
2023-01-13T08:38:45.411Z,51.211933
2023-01-13T08:39:45.437Z,51.211956
2023-01-13T08:40:45.387Z,51.211960
2023-01-13T08:41:45.383Z,51.211857
2023-01-13T08:42:48.378Z,51.211899
2023-01-13T08:43:45.494Z,51.211674
2023-01-13T08:44:45.359Z,51.211834
2023-01-13T08:45:45.424Z,51.212025
2023-01-13T08:46:45.345Z,51.211964
2023-01-13T08:47:45.335Z,51.212059
2023-01-13T08:48:45.375Z,51.211967
2023-01-13T08:49:45.346Z,51.211857
2023-01-13T08:50:45.366Z,51.211811
2023-01-13T08:51:45.351Z,51.211864
2023-01-13T08:52:45.306Z,51.211941
2023-01-13T08:53:45.320Z,51.211849
2023-01-13T08:54:45.303Z,51.211906
2023-01-13T08:55:45.281Z,51.212006
2023-01-13T08:56:45.325Z,51.212032
2023-01-13T08:57:46.291Z,51.211998
2023-01-13T08:58:45.272Z,51.212097
2023-01-13T08:59:45.305Z,51.212093
2023-01-13T09:00:45.267Z,51.211857
2023-01-13T09:01:45.423Z,51.211861
2023-01-13T09:02:45.249Z,51.211906
2023-01-13T09:03:45.334Z,51.211926
2023-01-13T09:04:45.299Z,51.211922
2023-01-13T09:05:45.223Z,51.212147
2023-01-13T09:06:45.221Z,51.212128
2023-01-13T09:07:45.210Z,51.212101
2023-01-13T09:08:45.224Z,51.212002
2023-01-13T09:09:45.238Z,51.211967
2023-01-13T09:10:45.193Z,51.211922
2023-01-13T09:11:45.197Z,51.211845
2023-01-13T09:12:45.185Z,51.211788
2023-01-13T09:13:45.181Z,51.211735
2023-01-13T09:14:45.180Z,51.211815
2023-01-13T09:15:45.209Z,51.211834
2023-01-13T09:16:45.185Z,51.211887
2023-01-13T09:17:45.150Z,51.211697
2023-01-13T09:18:45.136Z,51.211731
2023-01-13T09:19:45.186Z,51.211693
2023-01-13T09:20:45.124Z,51.211800
2023-01-13T09:21:45.131Z,51.211784
2023-01-13T09:22:45.126Z,51.211990
2023-01-13T09:23:45.120Z,51.211941
2023-01-13T09:24:45.112Z,51.211994
2023-01-13T09:25:45.159Z,51.211903
2023-01-13T09:26:45.087Z,51.211861
2023-01-13T09:27:45.090Z,51.211868
2023-01-13T09:28:45.225Z,51.211872
2023-01-13T09:29:45.066Z,51.211857
2023-01-13T09:30:45.076Z,51.211872
2023-01-13T09:31:45.158Z,51.211834
2023-01-13T09:32:45.047Z,51.211784
2023-01-13T09:33:45.049Z,51.212093
2023-01-13T09:34:45.081Z,51.212078
2023-01-13T09:35:45.050Z,51.212074
2023-01-13T09:36:45.016Z,51.212101
2023-01-13T09:37:45.049Z,51.212151
2023-01-13T09:38:45.010Z,51.212147
2023-01-13T09:39:45.035Z,51.212093
2023-01-13T09:40:45.086Z,51.212040
2023-01-13T09:41:45.022Z,51.211987
2023-01-13T09:42:44.983Z,51.212044
2023-01-13T09:43:45.058Z,51.212105
2023-01-13T09:44:44.982Z,51.212135
2023-01-13T09:45:45.003Z,51.212109
2023-01-13T09:46:45.282Z,51.212063
2023-01-13T09:47:45.002Z,51.212093
2023-01-13T09:48:44.997Z,51.212109
2023-01-13T09:49:44.937Z,51.212097
2023-01-13T09:50:44.934Z,51.212185
2023-01-13T09:51:44.972Z,51.212074
2023-01-13T09:52:44.943Z,51.212112
2023-01-13T09:53:45.034Z,51.212032
2023-01-13T09:54:45.111Z,51.211975
2023-01-13T09:55:44.901Z,51.212097
2023-01-13T09:56:44.932Z,51.212086
2023-01-13T09:57:44.925Z,51.212097
2023-01-13T09:58:44.881Z,51.212059
2023-01-13T09:59:44.910Z,51.211994
2023-01-13T10:00:44.972Z,51.212082
2023-01-13T10:01:44.869Z,51.212250
2023-01-13T10:02:44.869Z,51.212189
2023-01-13T10:03:44.961Z,51.212173
2023-01-13T10:04:44.915Z,51.212173
2023-01-13T10:05:44.841Z,51.212139
2023-01-13T10:06:44.889Z,51.212116
2023-01-13T10:07:44.864Z,51.212093
2023-01-13T10:08:44.829Z,51.212090
2023-01-13T10:09:44.821Z,51.212112
2023-01-13T10:10:45.810Z,51.212143
2023-01-13T10:11:44.823Z,51.212204
2023-01-13T10:12:44.820Z,51.212223
2023-01-13T10:13:44.796Z,51.212261
2023-01-13T10:14:44.781Z,51.212067
2023-01-13T10:15:44.819Z,51.211987
2023-01-13T10:16:44.807Z,51.212124
2023-01-13T10:17:44.778Z,51.212109
2023-01-13T10:18:44.947Z,51.212109
2023-01-13T10:19:44.770Z,51.212181
2023-01-13T10:20:44.817Z,51.212231
2023-01-13T10:21:44.762Z,51.212269
2023-01-13T10:22:44.761Z,51.212204
2023-01-13T10:23:44.740Z,51.212196
2023-01-13T10:24:44.761Z,51.212185
2023-01-13T10:25:44.742Z,51.212200
2023-01-13T10:26:44.715Z,51.212109
2023-01-13T10:27:44.697Z,51.212109
2023-01-13T10:28:44.720Z,51.212093
2023-01-13T10:29:44.706Z,51.212189
2023-01-13T10:30:44.680Z,51.212025
2023-01-13T10:31:44.873Z,51.212082
2023-01-13T10:32:44.677Z,51.212158
2023-01-13T10:33:44.691Z,51.212124
2023-01-13T10:34:44.734Z,51.212097
2023-01-13T10:35:44.647Z,51.212059
2023-01-13T10:36:44.661Z,51.212070
2023-01-13T10:37:44.657Z,51.211922
2023-01-13T10:38:44.630Z,51.212013
2023-01-13T10:39:44.673Z,51.212006
2023-01-13T10:40:45.030Z,51.211662
2023-01-13T10:41:44.644Z,51.211849
2023-01-13T10:42:44.608Z,51.211956
2023-01-13T10:43:44.610Z,51.212059
2023-01-13T10:44:44.606Z,51.212013
2023-01-13T10:45:44.605Z,51.211990
2023-01-13T10:46:45.650Z,51.212070
2023-01-13T10:47:44.600Z,51.212265
2023-01-13T10:48:44.577Z,51.212177
2023-01-13T10:49:44.564Z,51.212002
2023-01-13T10:50:44.622Z,51.212212
2023-01-13T10:51:44.573Z,51.212189
2023-01-13T10:52:44.732Z,51.212280
2023-01-13T10:53:44.649Z,51.212120
2023-01-13T10:54:44.546Z,51.212132
2023-01-13T10:55:44.552Z,51.212372
2023-01-13T10:56:44.537Z,51.212376
2023-01-13T10:57:44.524Z,51.212189
2023-01-13T10:58:44.569Z,51.212193
2023-01-13T10:59:44.575Z,51.212219
2023-01-13T11:00:44.504Z,51.212250
2023-01-13T11:01:44.583Z,51.212257
2023-01-13T11:02:44.567Z,51.212307
2023-01-13T11:03:44.540Z,51.212193
2023-01-13T11:04:44.561Z,51.212250
2023-01-13T11:05:44.476Z,51.211880
2023-01-13T11:06:44.480Z,51.212082
2023-01-13T11:07:44.466Z,51.212013
2023-01-13T11:08:44.472Z,51.211979
2023-01-13T11:09:44.498Z,51.211941
2023-01-13T11:10:44.530Z,51.211868
2023-01-13T11:11:44.460Z,51.211914
2023-01-13T11:12:44.431Z,51.211964
2023-01-13T11:13:44.504Z,51.211948
2023-01-13T11:14:44.435Z,51.211990
2023-01-13T11:15:44.464Z,51.212166
2023-01-13T11:16:53.018Z,51.211933
2023-01-13T11:17:46.419Z,51.211941
2023-01-13T11:18:44.443Z,51.211895
2023-01-13T11:19:44.468Z,51.211899
2023-01-13T11:20:44.523Z,51.211994
2023-01-13T11:21:44.380Z,51.211941
2023-01-13T11:22:44.373Z,51.212002
2023-01-13T11:23:44.398Z,51.211918
2023-01-13T11:24:44.362Z,51.211792